createdAt,value
2018-06-29T00:00:21.835Z,3.53
2018-06-29T00:03:19.582Z,4.60
2018-06-29T00:06:17.394Z,3.43
2018-06-29T00:09:15.443Z,2.77
2018-06-29T00:12:13.446Z,3.57
2018-06-29T00:15:11.191Z,3.07
2018-06-29T00:18:09.039Z,3.53
2018-06-29T00:21:06.817Z,4.30
2018-06-29T00:24:04.665Z,3.73
2018-06-29T00:27:02.583Z,3.53
2018-06-29T00:30:00.398Z,4.47
2018-06-29T00:32:58.442Z,3.20
2018-06-29T00:35:56.444Z,4.67
2018-06-29T00:38:54.538Z,4.87
2018-06-29T00:41:52.730Z,3.93
2018-06-29T00:44:50.713Z,3.80
2018-06-29T00:47:48.747Z,3.47
2018-06-29T00:50:46.863Z,5.60
2018-06-29T00:53:44.878Z,3.83
2018-06-29T00:56:42.710Z,4.30
2018-06-29T00:59:40.334Z,5.33
2018-06-29T01:02:38.201Z,3.37
2018-06-29T01:05:35.973Z,4.57
2018-06-29T01:08:34.021Z,5.33
2018-06-29T01:11:31.818Z,3.77
2018-06-29T01:14:29.591Z,4.73
2018-06-29T01:17:27.601Z,3.53
2018-06-29T01:20:25.669Z,3.57
2018-06-29T01:23:23.536Z,5.20
2018-06-29T01:26:21.833Z,4.27
2018-06-29T01:29:19.673Z,4.20
2018-06-29T01:32:17.604Z,4.53
2018-06-29T01:35:15.435Z,5.50
2018-06-29T01:38:13.284Z,4.13
2018-06-29T01:41:11.087Z,3.87
2018-06-29T01:44:08.933Z,4.17
2018-06-29T01:47:06.851Z,3.80
2018-06-29T01:50:04.702Z,3.37
2018-06-29T01:53:02.609Z,4.53
2018-06-29T01:56:00.583Z,4.93
2018-06-29T01:58:58.921Z,4.60
2018-06-29T02:01:56.972Z,6.40
2018-06-29T02:04:55.123Z,3.77
2018-06-29T02:07:52.890Z,4.30
2018-06-29T02:10:50.707Z,4.70
2018-06-29T02:13:48.591Z,4.40
2018-06-29T02:16:46.304Z,4.40
2018-06-29T02:19:44.483Z,5.73
2018-06-29T02:22:42.858Z,5.97
2018-06-29T02:25:41.106Z,4.30
2018-06-29T02:28:39.226Z,5.10
2018-06-29T02:31:37.097Z,5.00
2018-06-29T02:34:34.986Z,4.80
2018-06-29T02:37:33.031Z,6.27
2018-06-29T02:40:31.185Z,6.03
2018-06-29T02:43:29.008Z,4.93
2018-06-29T02:46:27.321Z,5.30
2018-06-29T02:49:24.904Z,5.77
2018-06-29T02:52:22.519Z,5.87
2018-06-29T02:55:20.302Z,9.60
2018-06-29T02:58:17.944Z,4.50
2018-06-29T03:01:15.646Z,4.27
2018-06-29T03:04:13.521Z,4.07
2018-06-29T03:07:11.433Z,5.73
2018-06-29T03:10:09.783Z,5.53
2018-06-29T03:13:07.663Z,4.70
2018-06-29T03:16:05.853Z,5.33
2018-06-29T03:19:03.895Z,5.70
2018-06-29T03:22:01.714Z,8.43
2018-06-29T03:24:59.862Z,5.70
2018-06-29T03:27:57.616Z,6.17
2018-06-29T03:30:55.421Z,8.90
2018-06-29T03:33:53.241Z,6.67
2018-06-29T03:36:51.139Z,5.90
2018-06-29T03:39:49.069Z,6.17
2018-06-29T03:42:46.809Z,5.37
2018-06-29T03:45:44.900Z,6.10
2018-06-29T03:48:42.789Z,6.00
2018-06-29T03:51:41.172Z,6.23
2018-06-29T03:54:39.136Z,4.63
2018-06-29T03:57:36.882Z,4.97
2018-06-29T04:00:34.755Z,9.47
2018-06-29T04:03:32.664Z,5.50
2018-06-29T04:06:30.682Z,4.20
2018-06-29T04:09:29.706Z,6.20
2018-06-29T04:12:27.836Z,5.47
2018-06-29T04:15:25.827Z,5.70
2018-06-29T04:18:24.297Z,5.50
2018-06-29T04:21:22.590Z,5.03
2018-06-29T04:24:20.367Z,4.93
2018-06-29T04:27:18.053Z,5.10
2018-06-29T04:30:15.753Z,5.00
2018-06-29T04:33:13.786Z,5.07
2018-06-29T04:36:11.885Z,5.03
2018-06-29T04:39:09.590Z,5.10
2018-06-29T04:42:08.034Z,5.13
2018-06-29T04:45:05.908Z,4.60
2018-06-29T04:48:04.019Z,5.10
2018-06-29T04:51:02.006Z,4.83
2018-06-29T04:54:00.260Z,5.13
2018-06-29T04:56:58.050Z,4.50
2018-06-29T04:59:56.170Z,7.03
2018-06-29T05:02:53.981Z,5.40
2018-06-29T05:05:52.137Z,9.33
2018-06-29T05:08:50.148Z,5.13
2018-06-29T05:11:47.972Z,7.57
2018-06-29T05:14:45.683Z,6.00
2018-06-29T05:17:43.663Z,6.93
2018-06-29T05:20:41.806Z,5.10
2018-06-29T05:23:39.813Z,4.87
2018-06-29T05:26:39.269Z,5.23
2018-06-29T05:29:37.046Z,5.30
2018-06-29T05:32:34.923Z,5.47
2018-06-29T05:35:33.084Z,5.40
2018-06-29T05:38:30.922Z,6.27
2018-06-29T05:41:28.888Z,10.27
2018-06-29T05:44:26.672Z,5.50
2018-06-29T05:47:24.639Z,5.07
2018-06-29T05:50:22.499Z,4.97
2018-06-29T05:53:20.179Z,8.17
2018-06-29T05:56:17.811Z,8.83
2018-06-29T05:59:15.630Z,9.20
2018-06-29T06:02:13.738Z,6.93
2018-06-29T06:05:11.443Z,4.80
2018-06-29T06:08:09.458Z,4.87
2018-06-29T06:11:07.307Z,6.03
2018-06-29T06:14:05.289Z,5.33
2018-06-29T06:17:02.965Z,4.97
2018-06-29T06:20:13.771Z,5.00
2018-06-29T06:23:16.659Z,4.97
2018-06-29T06:26:14.709Z,5.30
2018-06-29T06:29:12.331Z,6.42
2018-06-29T06:32:10.050Z,6.75
2018-06-29T06:35:07.862Z,4.70
2018-06-29T06:38:05.744Z,5.53
2018-06-29T06:41:03.903Z,4.75
2018-06-29T06:44:01.961Z,4.87
2018-06-29T06:46:59.946Z,4.60
2018-06-29T06:49:57.790Z,5.22
2018-06-29T06:52:55.973Z,5.47
2018-06-29T06:55:54.131Z,4.55
2018-06-29T06:58:52.042Z,4.70
2018-06-29T07:01:50.316Z,4.20
2018-06-29T07:04:48.268Z,4.03
2018-06-29T07:07:46.146Z,4.20
2018-06-29T07:10:44.162Z,4.40
2018-06-29T07:13:42.116Z,4.50
2018-06-29T07:16:40.174Z,4.17
2018-06-29T07:19:38.037Z,4.78
2018-06-29T07:22:36.207Z,7.67
2018-06-29T07:25:34.344Z,4.12
2018-06-29T07:28:32.111Z,3.98
2018-06-29T07:31:30.057Z,3.50
2018-06-29T07:34:28.151Z,3.65
2018-06-29T07:37:26.951Z,4.33
2018-06-29T07:40:25.091Z,3.35
2018-06-29T07:43:23.376Z,4.97
2018-06-29T07:46:21.017Z,4.10
2018-06-29T07:49:18.862Z,3.70
2018-06-29T07:52:16.598Z,3.72
2018-06-29T07:55:14.499Z,6.53
2018-06-29T07:58:12.587Z,3.02
2018-06-29T08:01:11.450Z,2.58
2018-06-29T08:04:09.396Z,3.08
2018-06-29T08:07:07.826Z,3.55
2018-06-29T08:10:05.968Z,3.40
2018-06-29T08:13:04.190Z,3.83
2018-06-29T08:16:02.944Z,4.92
2018-06-29T08:19:00.790Z,3.40
2018-06-29T08:21:59.039Z,3.22
2018-06-29T08:25:02.890Z,3.67
2018-06-29T08:28:00.822Z,3.45
2018-06-29T08:30:58.554Z,2.33
2018-06-29T08:33:56.519Z,3.52
2018-06-29T08:36:54.346Z,3.87
2018-06-29T08:39:52.330Z,2.30
2018-06-29T08:42:50.380Z,3.02
2018-06-29T08:45:48.674Z,2.10
2018-06-29T08:48:46.705Z,1.60
2018-06-29T08:51:44.637Z,1.85
2018-06-29T08:54:42.742Z,2.70
2018-06-29T08:57:40.777Z,1.82
2018-06-29T09:00:38.664Z,2.27
2018-06-29T09:03:36.763Z,2.85
2018-06-29T09:06:35.093Z,2.17
2018-06-29T09:09:33.034Z,2.33
2018-06-29T09:12:31.011Z,2.55
2018-06-29T09:15:28.853Z,1.67
2018-06-29T09:18:26.587Z,1.75
2018-06-29T09:21:24.622Z,2.92
2018-06-29T09:24:22.838Z,2.30
2018-06-29T09:27:20.879Z,1.85
2018-06-29T09:30:19.062Z,2.77
2018-06-29T09:33:16.683Z,2.92
2018-06-29T09:36:14.478Z,2.05
2018-06-29T09:39:13.121Z,2.25
2018-06-29T09:42:10.814Z,2.10
2018-06-29T09:45:08.545Z,2.98
2018-06-29T09:48:06.628Z,2.10
2018-06-29T09:51:04.551Z,2.22
2018-06-29T09:54:02.625Z,1.85
2018-06-29T09:57:00.306Z,2.30
2018-06-29T09:59:58.295Z,1.95
2018-06-29T10:02:56.191Z,2.42
2018-06-29T10:05:54.289Z,2.02
2018-06-29T10:08:52.219Z,2.65
2018-06-29T10:11:50.266Z,2.35
2018-06-29T10:14:54.960Z,2.30
2018-06-29T10:17:52.855Z,1.47
2018-06-29T10:20:50.692Z,2.60
2018-06-29T10:23:48.649Z,2.10
2018-06-29T10:26:46.434Z,2.77
2018-06-29T10:29:44.086Z,2.30
2018-06-29T10:32:41.882Z,3.30
2018-06-29T10:35:39.546Z,1.57
2018-06-29T10:38:37.349Z,2.30
2018-06-29T10:41:35.256Z,3.00
2018-06-29T10:44:33.273Z,2.12
2018-06-29T10:47:31.036Z,2.50
2018-06-29T10:50:29.265Z,1.80
2018-06-29T10:53:27.514Z,1.90
2018-06-29T10:56:25.591Z,1.72
2018-06-29T10:59:23.431Z,1.70
2018-06-29T11:02:21.256Z,2.55
2018-06-29T11:05:19.194Z,1.95
2018-06-29T11:08:17.142Z,1.80
2018-06-29T11:11:15.081Z,1.65
2018-06-29T11:14:14.009Z,2.10
2018-06-29T11:17:12.071Z,2.50
2018-06-29T11:20:10.147Z,2.12
2018-06-29T11:23:08.224Z,3.65
2018-06-29T11:26:06.390Z,2.95
2018-06-29T11:29:04.862Z,1.95
2018-06-29T11:32:03.246Z,3.42
2018-06-29T11:35:01.114Z,2.10
2018-06-29T11:37:59.274Z,2.40
2018-06-29T11:40:57.078Z,2.33
2018-06-29T11:43:55.197Z,2.20
2018-06-29T11:46:53.263Z,2.10
2018-06-29T11:49:51.490Z,3.13
2018-06-29T12:15:20.074Z,2.83
2018-06-29T12:18:17.994Z,2.80
2018-06-29T12:21:15.910Z,2.00
2018-06-29T12:24:13.883Z,1.67
2018-06-29T12:27:11.834Z,2.10
2018-06-29T12:30:09.819Z,2.67
2018-06-29T12:33:07.686Z,1.73
2018-06-29T12:36:05.850Z,1.97
2018-06-29T12:39:03.896Z,2.43
2018-06-29T12:42:01.873Z,1.87
2018-06-29T12:44:59.616Z,1.63
2018-06-29T12:47:58.609Z,1.70
2018-06-29T12:50:56.371Z,4.07
2018-06-29T12:53:54.462Z,2.17
2018-06-29T12:56:52.281Z,2.97
2018-06-29T12:59:50.269Z,2.80
2018-06-29T13:02:48.485Z,2.53
2018-06-29T13:05:46.950Z,1.40
2018-06-29T13:08:45.523Z,1.40
2018-06-29T13:11:43.237Z,2.40
2018-06-29T13:14:41.074Z,3.80
2018-06-29T13:17:38.942Z,1.83
2018-06-29T13:20:36.733Z,2.90
2018-06-29T13:23:34.506Z,1.13
2018-06-29T13:26:32.408Z,2.87
2018-06-29T13:29:30.141Z,1.20
2018-06-29T13:32:28.247Z,1.40
2018-06-29T13:35:25.983Z,1.90
2018-06-29T13:38:24.130Z,1.30
2018-06-29T13:41:21.863Z,2.73
2018-06-29T13:44:19.972Z,1.70
2018-06-29T13:47:17.778Z,1.40
2018-06-29T13:50:15.541Z,1.20
2018-06-29T13:53:13.940Z,1.97
2018-06-29T13:56:11.814Z,1.10
2018-06-29T13:59:09.606Z,1.37
2018-06-29T14:02:07.463Z,1.20
2018-06-29T14:05:05.227Z,1.40
2018-06-29T14:08:03.624Z,2.07
2018-06-29T14:11:01.722Z,1.57
2018-06-29T14:13:59.452Z,1.60
2018-06-29T14:16:57.050Z,1.90
2018-06-29T14:19:54.909Z,2.90
2018-06-29T14:22:44.855Z,2.43
2018-06-29T14:25:42.903Z,3.07
2018-06-29T14:28:40.956Z,2.07
2018-06-29T14:31:38.734Z,3.23
2018-06-29T14:34:36.943Z,2.33
2018-06-29T14:37:34.959Z,1.40
2018-06-29T14:40:32.762Z,2.67
2018-06-29T14:43:30.692Z,3.37
2018-06-29T14:46:28.607Z,2.20
2018-06-29T14:49:26.658Z,2.43
2018-06-29T14:52:24.623Z,1.90
2018-06-29T14:55:22.556Z,2.17
2018-06-29T14:58:20.632Z,2.70
2018-06-29T15:01:18.633Z,2.50
2018-06-29T15:04:16.393Z,3.00
2018-06-29T15:07:15.209Z,1.87
2018-06-29T15:10:13.134Z,4.37
2018-06-29T15:13:10.981Z,4.63
2018-06-29T15:16:09.130Z,4.60
2018-06-29T15:19:07.195Z,2.80
2018-06-29T15:22:05.133Z,3.87
2018-06-29T15:25:03.303Z,6.50
2018-06-29T15:28:01.399Z,2.70
2018-06-29T15:30:59.559Z,4.20
2018-06-29T15:33:57.682Z,5.00
2018-06-29T15:36:55.761Z,3.63
2018-06-29T15:39:53.914Z,4.57
2018-06-29T15:42:51.898Z,3.80
2018-06-29T15:45:49.993Z,6.97
2018-06-29T15:48:47.773Z,3.00
2018-06-29T15:51:45.832Z,4.17
2018-06-29T15:54:43.872Z,4.27
2018-06-29T15:57:41.811Z,3.67
2018-06-29T16:00:39.702Z,6.57
2018-06-29T16:03:37.644Z,8.30
2018-06-29T16:06:35.469Z,6.80
2018-06-29T16:09:33.347Z,4.50
2018-06-29T16:12:31.177Z,6.83
2018-06-29T16:15:28.995Z,4.00
2018-06-29T16:18:26.764Z,4.03
2018-06-29T16:21:24.990Z,7.67
2018-06-29T16:24:23.067Z,4.10
2018-06-29T16:27:20.894Z,5.33
2018-06-29T16:30:19.898Z,4.47
2018-06-29T16:33:17.723Z,4.03
2018-06-29T16:36:15.510Z,3.83
2018-06-29T16:39:13.636Z,5.10
2018-06-29T16:42:11.675Z,3.57
2018-06-29T16:45:09.730Z,3.37
2018-06-29T16:48:07.765Z,3.23
2018-06-29T16:51:06.108Z,5.07
2018-06-29T16:54:04.219Z,4.10
2018-06-29T16:57:02.307Z,4.07
2018-06-29T17:00:00.521Z,3.50
2018-06-29T17:02:58.417Z,4.73
2018-06-29T17:05:56.268Z,4.60
2018-06-29T17:08:55.194Z,4.83
2018-06-29T17:11:52.813Z,6.93
2018-06-29T17:14:50.556Z,4.03
2018-06-29T17:17:48.435Z,5.33
2018-06-29T17:20:46.228Z,3.50
2018-06-29T17:23:44.999Z,4.37
2018-06-29T17:26:42.588Z,6.33
2018-06-29T17:29:40.229Z,3.47
2018-06-29T17:32:38.182Z,5.17
2018-06-29T17:35:36.404Z,5.17
2018-06-29T17:38:34.598Z,3.17
2018-06-29T17:41:32.653Z,5.30
2018-06-29T17:44:30.483Z,3.83
2018-06-29T17:47:29.553Z,4.07
2018-06-29T17:50:27.338Z,4.37
2018-06-29T17:53:25.099Z,4.93
2018-06-29T17:56:22.980Z,4.37
2018-06-29T17:59:20.809Z,3.37
2018-06-29T18:02:18.840Z,3.10
2018-06-29T18:05:16.788Z,5.43
2018-06-29T18:08:14.833Z,3.23
2018-06-29T18:11:12.810Z,3.03
2018-06-29T18:14:10.908Z,3.10
2018-06-29T18:17:09.022Z,3.03
2018-06-29T18:20:06.971Z,6.20
2018-06-29T18:23:05.066Z,5.70
2018-06-29T18:26:02.915Z,7.63
2018-06-29T18:29:00.769Z,3.80
2018-06-29T18:31:58.798Z,5.20
2018-06-29T18:34:56.861Z,4.47
2018-06-29T18:37:54.734Z,8.20
2018-06-29T18:40:52.948Z,3.53
2018-06-29T18:43:50.682Z,5.77
2018-06-29T18:46:49.507Z,4.57
2018-06-29T18:49:47.943Z,3.37
2018-06-29T18:52:46.016Z,4.57
2018-06-29T18:55:43.891Z,3.57
2018-06-29T18:58:41.571Z,3.90
2018-06-29T19:01:40.501Z,4.07
2018-06-29T19:04:38.258Z,4.47
2018-06-29T19:07:36.246Z,7.57
2018-06-29T19:10:34.155Z,3.43
2018-06-29T19:13:32.196Z,4.53
2018-06-29T19:16:30.222Z,5.30
2018-06-29T19:19:28.464Z,5.03
2018-06-29T19:22:26.460Z,4.17
2018-06-29T19:25:24.330Z,4.67
2018-06-29T19:28:22.395Z,7.20
2018-06-29T19:31:20.284Z,5.17
2018-06-29T19:34:17.894Z,10.27
2018-06-29T19:37:15.852Z,5.50
2018-06-29T19:40:13.702Z,4.20
2018-06-29T19:43:11.597Z,4.50
2018-06-29T19:46:09.496Z,4.93
2018-06-29T19:49:07.955Z,8.90
2018-06-29T19:52:05.876Z,7.17
2018-06-29T19:55:03.695Z,6.80
2018-06-29T19:58:01.637Z,4.93
2018-06-29T20:00:59.922Z,5.90
2018-06-29T20:03:57.990Z,5.57
2018-06-29T20:06:55.944Z,7.33
2018-06-29T20:09:53.641Z,4.87
2018-06-29T20:12:51.632Z,6.00
2018-06-29T20:15:49.443Z,6.37
2018-06-29T20:18:47.926Z,5.23
2018-06-29T20:21:47.563Z,5.17
2018-06-29T20:24:46.216Z,4.83
2018-06-29T20:27:45.090Z,5.33
2018-06-29T20:30:42.658Z,8.93
2018-06-29T20:33:40.902Z,5.07
2018-06-29T20:36:39.945Z,6.07
2018-06-29T20:39:37.605Z,6.47
2018-06-29T20:42:35.451Z,5.73
2018-06-29T20:45:33.768Z,4.30
2018-06-29T20:48:31.669Z,6.70
2018-06-29T20:51:29.668Z,4.10
2018-06-29T20:54:27.546Z,8.63
2018-06-29T20:57:25.498Z,5.30
2018-06-29T21:00:23.346Z,4.63
2018-06-29T21:03:21.346Z,7.03
2018-06-29T21:06:19.063Z,4.13
2018-06-29T21:09:18.506Z,6.93
2018-06-29T21:12:16.533Z,4.97
2018-06-29T21:15:14.258Z,7.30
2018-06-29T21:18:12.130Z,5.60
2018-06-29T21:21:09.938Z,11.70
2018-06-29T21:24:08.335Z,5.57
2018-06-29T21:27:06.475Z,7.27
2018-06-29T21:30:04.426Z,7.77
2018-06-29T21:33:02.517Z,9.23
2018-06-29T21:36:00.591Z,9.30
2018-06-29T21:38:58.317Z,7.33
2018-06-29T21:41:56.143Z,10.23
2018-06-29T21:44:54.185Z,7.50
2018-06-29T21:47:52.113Z,7.97
2018-06-29T21:50:50.054Z,8.47
2018-06-29T21:53:48.524Z,12.57
2018-06-29T21:56:46.264Z,10.67
2018-06-29T21:59:44.302Z,10.73
2018-06-29T22:02:42.038Z,13.47
2018-06-29T22:05:40.581Z,14.87
2018-06-29T22:08:38.364Z,12.63
2018-06-29T22:11:36.348Z,13.60
2018-06-29T22:14:34.487Z,11.43
2018-06-29T22:17:32.358Z,15.53
2018-06-29T22:20:31.053Z,15.47
2018-06-29T22:23:28.936Z,14.00
2018-06-29T22:26:27.297Z,15.63
2018-06-29T22:29:25.042Z,17.47
2018-06-29T22:32:22.777Z,13.90
2018-06-29T22:35:20.537Z,14.33
2018-06-29T22:38:18.365Z,14.87
2018-06-29T22:41:16.130Z,18.67
2018-06-29T22:44:13.961Z,21.43
2018-06-29T22:47:11.768Z,12.70
2018-06-29T22:50:09.503Z,18.93
2018-06-29T22:53:07.267Z,17.37
2018-06-29T22:56:05.114Z,17.47
2018-06-29T22:59:02.941Z,18.27
2018-06-29T23:02:01.004Z,20.97
2018-06-29T23:04:58.829Z,18.27
2018-06-29T23:07:56.768Z,21.13
2018-06-29T23:10:54.523Z,13.80
2018-06-29T23:13:52.415Z,20.53
2018-06-29T23:16:49.899Z,17.23
2018-06-29T23:19:47.633Z,15.43
2018-06-29T23:22:45.485Z,17.93
2018-06-29T23:25:43.968Z,18.17
2018-06-29T23:28:41.982Z,19.67
2018-06-29T23:31:39.695Z,23.67
2018-06-29T23:34:37.642Z,19.13
2018-06-29T23:37:35.765Z,17.67
2018-06-29T23:40:33.673Z,15.27
2018-06-29T23:43:32.000Z,22.17
2018-06-29T23:46:29.670Z,14.03
2018-06-29T23:49:36.112Z,15.00
2018-06-29T23:52:34.032Z,15.30
2018-06-29T23:55:31.885Z,16.67
2018-06-29T23:58:30.470Z,20.13
